sensor_id;sensor_type;location;lat;lon;timestamp;P1;durP1;ratioP1;P2;durP2;ratioP2
75435;SDS011;64014;53.432;14.534;2023-01-10T00:01:31;15.55;;;8.52;;
75435;SDS011;64014;53.432;14.534;2023-01-10T00:03:57;17.00;;;8.98;;
75435;SDS011;64014;53.432;14.534;2023-01-10T00:06:23;14.07;;;7.57;;
75435;SDS011;64014;53.432;14.534;2023-01-10T00:08:49;15.73;;;7.35;;
75435;SDS011;64014;53.432;14.534;2023-01-10T00:11:15;17.80;;;8.07;;
75435;SDS011;64014;53.432;14.534;2023-01-10T00:13:59;14.65;;;6.30;;
75435;SDS011;64014;53.432;14.534;2023-01-10T00:16:25;11.50;;;6.13;;
75435;SDS011;64014;53.432;14.534;2023-01-10T00:18:50;14.85;;;5.65;;
75435;SDS011;64014;53.432;14.534;2023-01-10T00:21:16;13.05;;;7.53;;
75435;SDS011;64014;53.432;14.534;2023-01-10T00:23:42;11.70;;;5.07;;
75435;SDS011;64014;53.432;14.534;2023-01-10T00:26:08;11.70;;;4.80;;
75435;SDS011;64014;53.432;14.534;2023-01-10T00:28:35;15.25;;;6.10;;
75435;SDS011;64014;53.432;14.534;2023-01-10T00:31:03;12.52;;;6.32;;
75435;SDS011;64014;53.432;14.534;2023-01-10T00:33:34;12.30;;;4.95;;
75435;SDS011;64014;53.432;14.534;2023-01-10T00:36:01;12.52;;;5.82;;
75435;SDS011;64014;53.432;14.534;2023-01-10T00:38:29;10.32;;;5.20;;
75435;SDS011;64014;53.432;14.534;2023-01-10T00:40:55;12.50;;;5.38;;
75435;SDS011;64014;53.432;14.534;2023-01-10T00:43:21;10.55;;;5.13;;
75435;SDS011;64014;53.432;14.534;2023-01-10T00:46:06;11.68;;;5.45;;
75435;SDS011;64014;53.432;14.534;2023-01-10T00:48:33;12.95;;;6.30;;
75435;SDS011;64014;53.432;14.534;2023-01-10T00:51:00;11.57;;;5.15;;
75435;SDS011;64014;53.432;14.534;2023-01-10T00:53:26;13.95;;;7.25;;
75435;SDS011;64014;53.432;14.534;2023-01-10T00:55:54;16.10;;;6.22;;
75435;SDS011;64014;53.432;14.534;2023-01-10T00:58:21;14.32;;;5.55;;
75435;SDS011;64014;53.432;14.534;2023-01-10T01:00:47;10.52;;;5.22;;
75435;SDS011;64014;53.432;14.534;2023-01-10T01:03:14;10.60;;;5.05;;
75435;SDS011;64014;53.432;14.534;2023-01-10T01:05:45;11.75;;;5.72;;
75435;SDS011;64014;53.432;14.534;2023-01-10T01:08:13;12.68;;;4.93;;
75435;SDS011;64014;53.432;14.534;2023-01-10T01:10:40;12.80;;;6.93;;
75435;SDS011;64014;53.432;14.534;2023-01-10T01:13:09;10.02;;;4.45;;
75435;SDS011;64014;53.432;14.534;2023-01-10T01:15:39;10.40;;;5.60;;
75435;SDS011;64014;53.432;14.534;2023-01-10T01:18:05;11.50;;;5.72;;
75435;SDS011;64014;53.432;14.534;2023-01-10T01:20:32;10.90;;;5.05;;
75435;SDS011;64014;53.432;14.534;2023-01-10T01:22:57;12.93;;;6.47;;
75435;SDS011;64014;53.432;14.534;2023-01-10T01:25:24;12.85;;;5.85;;
75435;SDS011;64014;53.432;14.534;2023-01-10T01:27:51;12.15;;;5.65;;
75435;SDS011;64014;53.432;14.534;2023-01-10T01:30:16;14.07;;;5.60;;
75435;SDS011;64014;53.432;14.534;2023-01-10T01:32:42;10.40;;;5.30;;
75435;SDS011;64014;53.432;14.534;2023-01-10T01:35:09;11.77;;;5.43;;
75435;SDS011;64014;53.432;14.534;2023-01-10T01:37:38;9.57;;;4.93;;
75435;SDS011;64014;53.432;14.534;2023-01-10T01:40:04;14.10;;;6.47;;
75435;SDS011;64014;53.432;14.534;2023-01-10T01:42:32;13.93;;;5.25;;
75435;SDS011;64014;53.432;14.534;2023-01-10T01:47:35;11.60;;;5.50;;
75435;SDS011;64014;53.432;14.534;2023-01-10T01:50:15;12.68;;;5.22;;
75435;SDS011;64014;53.432;14.534;2023-01-10T01:52:47;12.10;;;5.72;;
75435;SDS011;64014;53.432;14.534;2023-01-10T01:55:15;10.88;;;5.55;;
75435;SDS011;64014;53.432;14.534;2023-01-10T01:57:41;13.45;;;5.57;;
75435;SDS011;64014;53.432;14.534;2023-01-10T02:00:08;9.10;;;4.43;;
75435;SDS011;64014;53.432;14.534;2023-01-10T02:02:35;11.35;;;4.20;;
75435;SDS011;64014;53.432;14.534;2023-01-10T02:05:08;10.25;;;5.03;;
75435;SDS011;64014;53.432;14.534;2023-01-10T02:07:37;11.43;;;4.80;;
75435;SDS011;64014;53.432;14.534;2023-01-10T02:10:08;9.38;;;5.05;;
75435;SDS011;64014;53.432;14.534;2023-01-10T02:12:56;9.52;;;5.45;;
75435;SDS011;64014;53.432;14.534;2023-01-10T02:15:26;12.05;;;5.07;;
75435;SDS011;64014;53.432;14.534;2023-01-10T02:17:53;10.43;;;5.32;;
75435;SDS011;64014;53.432;14.534;2023-01-10T02:20:19;10.45;;;5.40;;
75435;SDS011;64014;53.432;14.534;2023-01-10T02:33:46;10.13;;;5.32;;
75435;SDS011;64014;53.432;14.534;2023-01-10T02:36:47;9.95;;;5.13;;
75435;SDS011;64014;53.432;14.534;2023-01-10T02:39:33;10.73;;;5.72;;
75435;SDS011;64014;53.432;14.534;2023-01-10T02:45:10;12.25;;;5.38;;
75435;SDS011;64014;53.432;14.534;2023-01-10T02:47:57;11.13;;;4.50;;
75435;SDS011;64014;53.432;14.534;2023-01-10T02:52:58;9.93;;;5.05;;
75435;SDS011;64014;53.432;14.534;2023-01-10T02:55:34;10.73;;;4.88;;
75435;SDS011;64014;53.432;14.534;2023-01-10T03:03:50;11.32;;;4.95;;
75435;SDS011;64014;53.432;14.534;2023-01-10T03:09:43;10.80;;;4.88;;
75435;SDS011;64014;53.432;14.534;2023-01-10T03:12:33;9.07;;;4.28;;
75435;SDS011;64014;53.432;14.534;2023-01-10T03:15:06;14.23;;;5.40;;
75435;SDS011;64014;53.432;14.534;2023-01-10T03:17:34;11.95;;;5.78;;
75435;SDS011;64014;53.432;14.534;2023-01-10T03:20:03;10.38;;;4.97;;
75435;SDS011;64014;53.432;14.534;2023-01-10T03:22:30;13.10;;;5.32;;
75435;SDS011;64014;53.432;14.534;2023-01-10T03:25:00;9.82;;;4.68;;
75435;SDS011;64014;53.432;14.534;2023-01-10T03:32:52;10.98;;;5.30;;
75435;SDS011;64014;53.432;14.534;2023-01-10T03:35:19;11.20;;;5.45;;
75435;SDS011;64014;53.432;14.534;2023-01-10T03:37:57;14.07;;;6.30;;
75435;SDS011;64014;53.432;14.534;2023-01-10T03:43:25;13.55;;;5.65;;
75435;SDS011;64014;53.432;14.534;2023-01-10T03:46:25;14.82;;;6.28;;
75435;SDS011;64014;53.432;14.534;2023-01-10T03:49:06;15.82;;;5.80;;
75435;SDS011;64014;53.432;14.534;2023-01-10T03:51:33;13.45;;;6.80;;
75435;SDS011;64014;53.432;14.534;2023-01-10T03:54:01;12.05;;;6.18;;
75435;SDS011;64014;53.432;14.534;2023-01-10T03:56:28;15.15;;;6.18;;
75435;SDS011;64014;53.432;14.534;2023-01-10T03:58:54;15.38;;;8.13;;
75435;SDS011;64014;53.432;14.534;2023-01-10T04:01:19;14.23;;;6.20;;
75435;SDS011;64014;53.432;14.534;2023-01-10T04:03:45;15.50;;;6.63;;
75435;SDS011;64014;53.432;14.534;2023-01-10T04:06:11;13.15;;;6.15;;
75435;SDS011;64014;53.432;14.534;2023-01-10T04:08:37;15.75;;;7.22;;
75435;SDS011;64014;53.432;14.534;2023-01-10T04:11:03;16.92;;;7.32;;
75435;SDS011;64014;53.432;14.534;2023-01-10T04:13:28;17.33;;;8.15;;
75435;SDS011;64014;53.432;14.534;2023-01-10T04:15:54;10.98;;;5.93;;
75435;SDS011;64014;53.432;14.534;2023-01-10T04:18:20;14.90;;;5.40;;
75435;SDS011;64014;53.432;14.534;2023-01-10T04:20:46;17.52;;;8.02;;
75435;SDS011;64014;53.432;14.534;2023-01-10T04:23:11;16.15;;;7.13;;
75435;SDS011;64014;53.432;14.534;2023-01-10T04:25:37;16.83;;;6.78;;
75435;SDS011;64014;53.432;14.534;2023-01-10T04:28:03;15.88;;;6.32;;
75435;SDS011;64014;53.432;14.534;2023-01-10T04:30:29;19.60;;;6.90;;
75435;SDS011;64014;53.432;14.534;2023-01-10T04:32:55;17.25;;;6.43;;
75435;SDS011;64014;53.432;14.534;2023-01-10T04:35:20;17.15;;;7.07;;
75435;SDS011;64014;53.432;14.534;2023-01-10T04:37:46;14.43;;;7.07;;
75435;SDS011;64014;53.432;14.534;2023-01-10T04:40:12;14.93;;;6.93;;
75435;SDS011;64014;53.432;14.534;2023-01-10T04:42:41;17.15;;;7.40;;
75435;SDS011;64014;53.432;14.534;2023-01-10T04:45:07;19.23;;;7.15;;
75435;SDS011;64014;53.432;14.534;2023-01-10T04:47:35;17.35;;;7.80;;
75435;SDS011;64014;53.432;14.534;2023-01-10T04:50:01;14.85;;;6.45;;
75435;SDS011;64014;53.432;14.534;2023-01-10T04:52:27;14.25;;;5.88;;
75435;SDS011;64014;53.432;14.534;2023-01-10T04:54:53;15.95;;;6.03;;
75435;SDS011;64014;53.432;14.534;2023-01-10T04:57:18;16.65;;;6.70;;
75435;SDS011;64014;53.432;14.534;2023-01-10T04:59:44;16.42;;;6.82;;
75435;SDS011;64014;53.432;14.534;2023-01-10T05:02:10;19.15;;;6.95;;
75435;SDS011;64014;53.432;14.534;2023-01-10T05:04:36;17.58;;;7.45;;
75435;SDS011;64014;53.432;14.534;2023-01-10T05:07:01;15.35;;;7.13;;
75435;SDS011;64014;53.432;14.534;2023-01-10T05:09:28;16.58;;;7.63;;
75435;SDS011;64014;53.432;14.534;2023-01-10T05:11:53;17.80;;;7.32;;
75435;SDS011;64014;53.432;14.534;2023-01-10T05:14:19;19.92;;;8.07;;
75435;SDS011;64014;53.432;14.534;2023-01-10T05:16:45;19.40;;;8.52;;
75435;SDS011;64014;53.432;14.534;2023-01-10T05:19:11;21.52;;;9.25;;
75435;SDS011;64014;53.432;14.534;2023-01-10T05:21:37;18.35;;;8.23;;
75435;SDS011;64014;53.432;14.534;2023-01-10T05:24:03;22.75;;;10.50;;
75435;SDS011;64014;53.432;14.534;2023-01-10T05:26:29;22.08;;;9.35;;
75435;SDS011;64014;53.432;14.534;2023-01-10T05:28:55;19.90;;;9.13;;
75435;SDS011;64014;53.432;14.534;2023-01-10T05:31:20;23.00;;;9.43;;
75435;SDS011;64014;53.432;14.534;2023-01-10T05:33:47;19.17;;;8.30;;
75435;SDS011;64014;53.432;14.534;2023-01-10T05:36:14;20.45;;;9.10;;
75435;SDS011;64014;53.432;14.534;2023-01-10T05:38:41;22.25;;;9.48;;
75435;SDS011;64014;53.432;14.534;2023-01-10T05:41:07;22.98;;;9.50;;
75435;SDS011;64014;53.432;14.534;2023-01-10T05:43:33;23.02;;;8.60;;
75435;SDS011;64014;53.432;14.534;2023-01-10T05:45:59;22.10;;;9.05;;
75435;SDS011;64014;53.432;14.534;2023-01-10T05:48:25;19.98;;;8.80;;
75435;SDS011;64014;53.432;14.534;2023-01-10T05:50:51;22.80;;;11.10;;
75435;SDS011;64014;53.432;14.534;2023-01-10T05:53:17;19.23;;;9.75;;
75435;SDS011;64014;53.432;14.534;2023-01-10T05:55:50;20.60;;;9.25;;
75435;SDS011;64014;53.432;14.534;2023-01-10T05:58:27;22.95;;;8.52;;
75435;SDS011;64014;53.432;14.534;2023-01-10T06:00:54;22.88;;;10.20;;
75435;SDS011;64014;53.432;14.534;2023-01-10T06:03:21;27.83;;;10.25;;
75435;SDS011;64014;53.432;14.534;2023-01-10T06:05:47;22.67;;;8.60;;
75435;SDS011;64014;53.432;14.534;2023-01-10T06:08:13;17.02;;;7.15;;
75435;SDS011;64014;53.432;14.534;2023-01-10T06:10:38;23.15;;;10.25;;
75435;SDS011;64014;53.432;14.534;2023-01-10T06:13:04;20.00;;;8.48;;
75435;SDS011;64014;53.432;14.534;2023-01-10T06:15:30;22.52;;;8.52;;
75435;SDS011;64014;53.432;14.534;2023-01-10T06:17:57;22.35;;;8.75;;
75435;SDS011;64014;53.432;14.534;2023-01-10T06:20:23;21.27;;;8.13;;
75435;SDS011;64014;53.432;14.534;2023-01-10T06:22:49;22.08;;;9.13;;
75435;SDS011;64014;53.432;14.534;2023-01-10T06:25:14;23.65;;;9.10;;
75435;SDS011;64014;53.432;14.534;2023-01-10T06:27:41;23.27;;;8.25;;
75435;SDS011;64014;53.432;14.534;2023-01-10T06:30:08;22.27;;;8.38;;
75435;SDS011;64014;53.432;14.534;2023-01-10T06:32:35;24.95;;;8.93;;
75435;SDS011;64014;53.432;14.534;2023-01-10T06:35:01;21.45;;;9.05;;
75435;SDS011;64014;53.432;14.534;2023-01-10T06:37:28;25.88;;;9.45;;
75435;SDS011;64014;53.432;14.534;2023-01-10T06:39:54;25.25;;;9.40;;
75435;SDS011;64014;53.432;14.534;2023-01-10T06:42:19;24.00;;;9.80;;
75435;SDS011;64014;53.432;14.534;2023-01-10T06:44:45;24.73;;;10.45;;
75435;SDS011;64014;53.432;14.534;2023-01-10T06:47:11;21.48;;;8.80;;
75435;SDS011;64014;53.432;14.534;2023-01-10T06:49:37;26.92;;;9.90;;
75435;SDS011;64014;53.432;14.534;2023-01-10T06:52:02;24.55;;;9.32;;
75435;SDS011;64014;53.432;14.534;2023-01-10T06:54:28;21.45;;;10.02;;
75435;SDS011;64014;53.432;14.534;2023-01-10T06:56:54;19.55;;;8.95;;
75435;SDS011;64014;53.432;14.534;2023-01-10T06:59:20;20.23;;;9.15;;
75435;SDS011;64014;53.432;14.534;2023-01-10T07:01:45;17.67;;;7.43;;
75435;SDS011;64014;53.432;14.534;2023-01-10T07:04:11;23.73;;;10.93;;
75435;SDS011;64014;53.432;14.534;2023-01-10T07:06:37;22.65;;;9.68;;
75435;SDS011;64014;53.432;14.534;2023-01-10T07:09:04;20.77;;;8.90;;
75435;SDS011;64014;53.432;14.534;2023-01-10T07:11:31;29.42;;;11.25;;
75435;SDS011;64014;53.432;14.534;2023-01-10T07:13:57;23.08;;;9.95;;
75435;SDS011;64014;53.432;14.534;2023-01-10T07:16:23;24.95;;;10.43;;
75435;SDS011;64014;53.432;14.534;2023-01-10T07:18:48;24.20;;;10.55;;
75435;SDS011;64014;53.432;14.534;2023-01-10T07:21:14;26.70;;;11.77;;
75435;SDS011;64014;53.432;14.534;2023-01-10T07:23:42;25.70;;;10.10;;
75435;SDS011;64014;53.432;14.534;2023-01-10T07:26:09;22.58;;;10.70;;
75435;SDS011;64014;53.432;14.534;2023-01-10T07:28:35;27.83;;;10.05;;
75435;SDS011;64014;53.432;14.534;2023-01-10T07:31:02;27.23;;;12.05;;
75435;SDS011;64014;53.432;14.534;2023-01-10T07:33:30;24.35;;;10.77;;
75435;SDS011;64014;53.432;14.534;2023-01-10T07:35:56;21.67;;;8.68;;
75435;SDS011;64014;53.432;14.534;2023-01-10T07:38:22;23.27;;;9.95;;
75435;SDS011;64014;53.432;14.534;2023-01-10T07:40:48;26.20;;;9.75;;
75435;SDS011;64014;53.432;14.534;2023-01-10T07:43:14;24.92;;;9.32;;
75435;SDS011;64014;53.432;14.534;2023-01-10T07:45:39;24.38;;;10.38;;
75435;SDS011;64014;53.432;14.534;2023-01-10T07:48:05;24.27;;;9.00;;
75435;SDS011;64014;53.432;14.534;2023-01-10T07:50:34;23.73;;;9.57;;
75435;SDS011;64014;53.432;14.534;2023-01-10T07:53:01;25.20;;;10.02;;
75435;SDS011;64014;53.432;14.534;2023-01-10T07:55:28;23.98;;;10.45;;
75435;SDS011;64014;53.432;14.534;2023-01-10T07:57:54;24.38;;;10.27;;
75435;SDS011;64014;53.432;14.534;2023-01-10T08:00:20;23.88;;;12.32;;
75435;SDS011;64014;53.432;14.534;2023-01-10T08:02:46;25.73;;;11.32;;
75435;SDS011;64014;53.432;14.534;2023-01-10T08:05:16;27.25;;;12.45;;
75435;SDS011;64014;53.432;14.534;2023-01-10T08:07:42;27.52;;;12.27;;
75435;SDS011;64014;53.432;14.534;2023-01-10T08:10:08;27.60;;;14.70;;
75435;SDS011;64014;53.432;14.534;2023-01-10T08:12:34;23.35;;;10.40;;
75435;SDS011;64014;53.432;14.534;2023-01-10T08:15:00;28.55;;;10.32;;
75435;SDS011;64014;53.432;14.534;2023-01-10T08:17:26;24.15;;;11.25;;
75435;SDS011;64014;53.432;14.534;2023-01-10T08:19:52;25.23;;;11.80;;
75435;SDS011;64014;53.432;14.534;2023-01-10T08:22:17;30.67;;;11.95;;
75435;SDS011;64014;53.432;14.534;2023-01-10T08:24:43;21.92;;;8.52;;
75435;SDS011;64014;53.432;14.534;2023-01-10T08:27:09;29.02;;;11.90;;
75435;SDS011;64014;53.432;14.534;2023-01-10T08:29:35;27.05;;;12.13;;
75435;SDS011;64014;53.432;14.534;2023-01-10T08:32:01;26.85;;;13.45;;
75435;SDS011;64014;53.432;14.534;2023-01-10T08:34:26;27.95;;;12.73;;
75435;SDS011;64014;53.432;14.534;2023-01-10T08:36:53;25.15;;;12.48;;
75435;SDS011;64014;53.432;14.534;2023-01-10T08:39:19;29.08;;;11.52;;
75435;SDS011;64014;53.432;14.534;2023-01-10T08:41:46;28.23;;;11.65;;
75435;SDS011;64014;53.432;14.534;2023-01-10T08:44:13;28.83;;;10.73;;
75435;SDS011;64014;53.432;14.534;2023-01-10T08:46:40;26.98;;;10.38;;
75435;SDS011;64014;53.432;14.534;2023-01-10T08:49:06;26.85;;;11.48;;
75435;SDS011;64014;53.432;14.534;2023-01-10T08:51:33;29.63;;;11.82;;
75435;SDS011;64014;53.432;14.534;2023-01-10T08:53:58;30.55;;;12.07;;
75435;SDS011;64014;53.432;14.534;2023-01-10T08:56:24;26.52;;;12.35;;
75435;SDS011;64014;53.432;14.534;2023-01-10T08:58:50;23.73;;;11.23;;
75435;SDS011;64014;53.432;14.534;2023-01-10T09:01:16;26.35;;;12.02;;
75435;SDS011;64014;53.432;14.534;2023-01-10T09:03:42;21.98;;;9.35;;
75435;SDS011;64014;53.432;14.534;2023-01-10T09:06:09;26.20;;;10.57;;
75435;SDS011;64014;53.432;14.534;2023-01-10T09:08:35;23.52;;;10.45;;
75435;SDS011;64014;53.432;14.534;2023-01-10T09:11:02;26.02;;;9.55;;
75435;SDS011;64014;53.432;14.534;2023-01-10T09:13:29;25.50;;;9.77;;
75435;SDS011;64014;53.432;14.534;2023-01-10T09:15:55;24.77;;;9.82;;
75435;SDS011;64014;53.432;14.534;2023-01-10T09:18:21;23.48;;;10.77;;
75435;SDS011;64014;53.432;14.534;2023-01-10T09:20:47;25.40;;;10.32;;
75435;SDS011;64014;53.432;14.534;2023-01-10T09:23:15;24.05;;;11.60;;
75435;SDS011;64014;53.432;14.534;2023-01-10T09:25:44;19.60;;;9.10;;
75435;SDS011;64014;53.432;14.534;2023-01-10T09:28:14;23.10;;;10.13;;
75435;SDS011;64014;53.432;14.534;2023-01-10T09:30:40;23.55;;;9.82;;
75435;SDS011;64014;53.432;14.534;2023-01-10T09:33:06;19.75;;;9.60;;
75435;SDS011;64014;53.432;14.534;2023-01-10T09:35:34;21.83;;;9.27;;
75435;SDS011;64014;53.432;14.534;2023-01-10T09:38:01;23.42;;;9.48;;
75435;SDS011;64014;53.432;14.534;2023-01-10T09:45:58;23.30;;;9.73;;
75435;SDS011;64014;53.432;14.534;2023-01-10T09:53:44;24.08;;;9.30;;
75435;SDS011;64014;53.432;14.534;2023-01-10T09:56:12;23.75;;;10.80;;
75435;SDS011;64014;53.432;14.534;2023-01-10T09:58:39;24.15;;;10.90;;
75435;SDS011;64014;53.432;14.534;2023-01-10T10:01:11;22.00;;;9.13;;
75435;SDS011;64014;53.432;14.534;2023-01-10T10:04:06;15.90;;;7.43;;
75435;SDS011;64014;53.432;14.534;2023-01-10T10:06:50;23.77;;;9.43;;
75435;SDS011;64014;53.432;14.534;2023-01-10T10:09:22;22.73;;;9.95;;
75435;SDS011;64014;53.432;14.534;2023-01-10T10:17:36;19.50;;;8.80;;
75435;SDS011;64014;53.432;14.534;2023-01-10T10:23:21;17.95;;;7.60;;
75435;SDS011;64014;53.432;14.534;2023-01-10T10:26:18;20.08;;;11.02;;
75435;SDS011;64014;53.432;14.534;2023-01-10T10:40:00;14.90;;;5.45;;
75435;SDS011;64014;53.432;14.534;2023-01-10T10:42:21;9.30;;;3.47;;
75435;SDS011;64014;53.432;14.534;2023-01-10T10:44:57;12.65;;;3.53;;
75435;SDS011;64014;53.432;14.534;2023-01-10T10:47:26;13.90;;;6.93;;
75435;SDS011;64014;53.432;14.534;2023-01-10T10:52:54;14.38;;;8.07;;
75435;SDS011;64014;53.432;14.534;2023-01-10T10:55:21;12.07;;;3.92;;
75435;SDS011;64014;53.432;14.534;2023-01-10T10:58:00;10.48;;;3.42;;
75435;SDS011;64014;53.432;14.534;2023-01-10T11:00:28;12.50;;;3.92;;
75435;SDS011;64014;53.432;14.534;2023-01-10T11:02:56;10.82;;;2.88;;
75435;SDS011;64014;53.432;14.534;2023-01-10T11:05:36;16.98;;;8.90;;
75435;SDS011;64014;53.432;14.534;2023-01-10T11:08:05;13.38;;;5.32;;
75435;SDS011;64014;53.432;14.534;2023-01-10T11:10:37;9.50;;;4.35;;
75435;SDS011;64014;53.432;14.534;2023-01-10T11:13:11;13.85;;;4.60;;
75435;SDS011;64014;53.432;14.534;2023-01-10T11:15:47;9.70;;;3.05;;
75435;SDS011;64014;53.432;14.534;2023-01-10T11:18:18;11.60;;;3.92;;
75435;SDS011;64014;53.432;14.534;2023-01-10T11:20:46;14.00;;;3.40;;
75435;SDS011;64014;53.432;14.534;2023-01-10T11:23:23;12.05;;;4.75;;
75435;SDS011;64014;53.432;14.534;2023-01-10T11:25:58;10.80;;;4.13;;
75435;SDS011;64014;53.432;14.534;2023-01-10T11:28:25;13.73;;;5.10;;
75435;SDS011;64014;53.432;14.534;2023-01-10T11:30:55;12.70;;;3.05;;
75435;SDS011;64014;53.432;14.534;2023-01-10T11:33:22;10.73;;;3.78;;
75435;SDS011;64014;53.432;14.534;2023-01-10T11:36:05;10.82;;;3.78;;
75435;SDS011;64014;53.432;14.534;2023-01-10T11:38:34;12.43;;;4.45;;
75435;SDS011;64014;53.432;14.534;2023-01-10T11:41:42;6.82;;;3.15;;
75435;SDS011;64014;53.432;14.534;2023-01-10T11:43:51;8.13;;;3.22;;
75435;SDS011;64014;53.432;14.534;2023-01-10T11:46:18;11.18;;;3.90;;
75435;SDS011;64014;53.432;14.534;2023-01-10T11:51:25;46.22;;;16.88;;
75435;SDS011;64014;53.432;14.534;2023-01-10T11:54:05;33.03;;;12.90;;
75435;SDS011;64014;53.432;14.534;2023-01-10T11:56:35;17.33;;;7.60;;
75435;SDS011;64014;53.432;14.534;2023-01-10T12:01:44;10.85;;;4.25;;
75435;SDS011;64014;53.432;14.534;2023-01-10T12:04:27;10.23;;;4.60;;
75435;SDS011;64014;53.432;14.534;2023-01-10T12:06:59;10.80;;;3.72;;
75435;SDS011;64014;53.432;14.534;2023-01-10T12:14:44;10.55;;;4.47;;
75435;SDS011;64014;53.432;14.534;2023-01-10T12:17:24;10.60;;;5.45;;
75435;SDS011;64014;53.432;14.534;2023-01-10T12:19:53;8.18;;;3.08;;
75435;SDS011;64014;53.432;14.534;2023-01-10T12:22:46;12.57;;;9.50;;
75435;SDS011;64014;53.432;14.534;2023-01-10T12:28:25;13.50;;;11.48;;
75435;SDS011;64014;53.432;14.534;2023-01-10T12:30:54;13.30;;;11.43;;
75435;SDS011;64014;53.432;14.534;2023-01-10T12:38:35;12.23;;;9.82;;
75435;SDS011;64014;53.432;14.534;2023-01-10T12:41:50;19.55;;;18.25;;
75435;SDS011;64014;53.432;14.534;2023-01-10T12:45:02;10.95;;;7.85;;
75435;SDS011;64014;53.432;14.534;2023-01-10T12:50:42;10.90;;;9.98;;
75435;SDS011;64014;53.432;14.534;2023-01-10T12:55:44;9.95;;;3.78;;
75435;SDS011;64014;53.432;14.534;2023-01-10T13:01:14;10.20;;;3.45;;
75435;SDS011;64014;53.432;14.534;2023-01-10T13:03:43;11.40;;;3.20;;
75435;SDS011;64014;53.432;14.534;2023-01-10T13:06:15;9.50;;;2.42;;
75435;SDS011;64014;53.432;14.534;2023-01-10T13:08:48;12.40;;;3.63;;
75435;SDS011;64014;53.432;14.534;2023-01-10T13:11:15;8.70;;;3.55;;
75435;SDS011;64014;53.432;14.534;2023-01-10T13:13:47;9.77;;;2.72;;
75435;SDS011;64014;53.432;14.534;2023-01-10T13:21:43;12.23;;;2.72;;
75435;SDS011;64014;53.432;14.534;2023-01-10T13:24:20;9.65;;;3.22;;
75435;SDS011;64014;53.432;14.534;2023-01-10T13:29:29;7.50;;;2.42;;
75435;SDS011;64014;53.432;14.534;2023-01-10T13:32:41;11.75;;;2.17;;
75435;SDS011;64014;53.432;14.534;2023-01-10T13:35:21;9.55;;;1.55;;
75435;SDS011;64014;53.432;14.534;2023-01-10T13:37:52;8.40;;;2.70;;
75435;SDS011;64014;53.432;14.534;2023-01-10T13:40:24;8.52;;;3.50;;
75435;SDS011;64014;53.432;14.534;2023-01-10T13:51:34;7.72;;;2.75;;
75435;SDS011;64014;53.432;14.534;2023-01-10T13:54:01;9.32;;;4.15;;
75435;SDS011;64014;53.432;14.534;2023-01-10T13:56:41;6.72;;;2.13;;
75435;SDS011;64014;53.432;14.534;2023-01-10T14:02:26;8.13;;;2.78;;
75435;SDS011;64014;53.432;14.534;2023-01-10T14:07:47;9.60;;;2.30;;
75435;SDS011;64014;53.432;14.534;2023-01-10T14:10:24;15.52;;;5.32;;
75435;SDS011;64014;53.432;14.534;2023-01-10T14:15:30;11.65;;;4.05;;
75435;SDS011;64014;53.432;14.534;2023-01-10T14:18:02;13.75;;;3.97;;
75435;SDS011;64014;53.432;14.534;2023-01-10T14:20:32;18.83;;;7.97;;
75435;SDS011;64014;53.432;14.534;2023-01-10T14:25:34;9.70;;;3.10;;
75435;SDS011;64014;53.432;14.534;2023-01-10T14:28:02;11.00;;;3.92;;
75435;SDS011;64014;53.432;14.534;2023-01-10T14:30:36;9.68;;;3.17;;
75435;SDS011;64014;53.432;14.534;2023-01-10T14:33:11;8.98;;;2.70;;
75435;SDS011;64014;53.432;14.534;2023-01-10T14:35:42;17.50;;;6.40;;
75435;SDS011;64014;53.432;14.534;2023-01-10T14:38:16;13.30;;;6.50;;
75435;SDS011;64014;53.432;14.534;2023-01-10T14:40:51;10.20;;;4.65;;
75435;SDS011;64014;53.432;14.534;2023-01-10T14:43:24;23.48;;;10.77;;
75435;SDS011;64014;53.432;14.534;2023-01-10T14:45:54;32.05;;;12.60;;
75435;SDS011;64014;53.432;14.534;2023-01-10T14:48:39;31.35;;;15.30;;
75435;SDS011;64014;53.432;14.534;2023-01-10T14:54:30;24.60;;;11.02;;
75435;SDS011;64014;53.432;14.534;2023-01-10T14:56:39;14.63;;;6.30;;
75435;SDS011;64014;53.432;14.534;2023-01-10T14:59:25;24.40;;;10.05;;
75435;SDS011;64014;53.432;14.534;2023-01-10T15:01:56;21.13;;;8.07;;
75435;SDS011;64014;53.432;14.534;2023-01-10T15:04:28;13.32;;;5.45;;
75435;SDS011;64014;53.432;14.534;2023-01-10T15:09:27;19.17;;;4.78;;
75435;SDS011;64014;53.432;14.534;2023-01-10T15:11:55;18.05;;;5.72;;
75435;SDS011;64014;53.432;14.534;2023-01-10T15:14:23;10.85;;;4.65;;
75435;SDS011;64014;53.432;14.534;2023-01-10T15:16:51;17.27;;;5.68;;
75435;SDS011;64014;53.432;14.534;2023-01-10T15:19:20;20.25;;;7.05;;
75435;SDS011;64014;53.432;14.534;2023-01-10T15:21:47;12.10;;;3.50;;
75435;SDS011;64014;53.432;14.534;2023-01-10T15:24:26;12.80;;;3.83;;
75435;SDS011;64014;53.432;14.534;2023-01-10T15:27:01;17.30;;;5.20;;
75435;SDS011;64014;53.432;14.534;2023-01-10T15:29:29;11.15;;;4.43;;
75435;SDS011;64014;53.432;14.534;2023-01-10T15:32:20;16.25;;;6.15;;
75435;SDS011;64014;53.432;14.534;2023-01-10T15:35:03;14.38;;;5.55;;
75435;SDS011;64014;53.432;14.534;2023-01-10T15:37:31;17.83;;;7.22;;
75435;SDS011;64014;53.432;14.534;2023-01-10T15:40:03;11.73;;;5.88;;
75435;SDS011;64014;53.432;14.534;2023-01-10T15:42:30;13.38;;;4.25;;
75435;SDS011;64014;53.432;14.534;2023-01-10T15:44:56;16.50;;;3.95;;
75435;SDS011;64014;53.432;14.534;2023-01-10T15:47:50;11.45;;;4.75;;
75435;SDS011;64014;53.432;14.534;2023-01-10T15:53:02;16.52;;;4.03;;
75435;SDS011;64014;53.432;14.534;2023-01-10T15:55:38;12.60;;;5.70;;
75435;SDS011;64014;53.432;14.534;2023-01-10T16:00:47;12.13;;;3.55;;
75435;SDS011;64014;53.432;14.534;2023-01-10T16:03:36;9.98;;;3.88;;
75435;SDS011;64014;53.432;14.534;2023-01-10T16:06:32;13.00;;;4.68;;
75435;SDS011;64014;53.432;14.534;2023-01-10T16:09:02;14.77;;;5.28;;
75435;SDS011;64014;53.432;14.534;2023-01-10T16:11:39;17.75;;;5.22;;
75435;SDS011;64014;53.432;14.534;2023-01-10T16:14:28;12.98;;;4.97;;
75435;SDS011;64014;53.432;14.534;2023-01-10T16:16:54;17.92;;;6.25;;
75435;SDS011;64014;53.432;14.534;2023-01-10T16:19:20;15.07;;;6.57;;
75435;SDS011;64014;53.432;14.534;2023-01-10T16:21:50;17.52;;;6.55;;
75435;SDS011;64014;53.432;14.534;2023-01-10T16:24:23;15.63;;;5.28;;
75435;SDS011;64014;53.432;14.534;2023-01-10T16:26:51;20.17;;;6.68;;
75435;SDS011;64014;53.432;14.534;2023-01-10T16:29:18;21.33;;;9.07;;
75435;SDS011;64014;53.432;14.534;2023-01-10T16:31:49;22.00;;;8.15;;
75435;SDS011;64014;53.432;14.534;2023-01-10T16:34:23;15.26;;;6.42;;
75435;SDS011;64014;53.432;14.534;2023-01-10T16:36:50;18.52;;;6.72;;
75435;SDS011;64014;53.432;14.534;2023-01-10T16:39:17;16.88;;;7.38;;
75435;SDS011;64014;53.432;14.534;2023-01-10T16:41:44;18.60;;;6.22;;
75435;SDS011;64014;53.432;14.534;2023-01-10T16:44:43;16.98;;;4.97;;
75435;SDS011;64014;53.432;14.534;2023-01-10T16:47:09;15.57;;;5.50;;
75435;SDS011;64014;53.432;14.534;2023-01-10T16:49:35;17.45;;;5.00;;
75435;SDS011;64014;53.432;14.534;2023-01-10T16:52:01;12.40;;;6.22;;
75435;SDS011;64014;53.432;14.534;2023-01-10T16:54:27;28.67;;;13.73;;